createdAt,value
2016-03-11T00:00:40.803Z,42.61
2016-03-11T00:01:40.883Z,42.23
2016-03-11T00:02:40.917Z,42.23
2016-03-11T00:03:40.951Z,42.23
2016-03-11T00:04:41.016Z,42.23
2016-03-11T00:05:41.067Z,42.13
2016-03-11T00:06:41.131Z,42.23
2016-03-11T00:07:41.180Z,42.13
2016-03-11T00:08:41.214Z,42.23
2016-03-11T00:09:41.280Z,42.04
2016-03-11T00:10:41.330Z,41.85
2016-03-11T00:11:41.364Z,42.43
2016-03-11T00:12:41.429Z,42.33
2016-03-11T00:13:41.478Z,41.94
2016-03-11T00:14:41.512Z,41.27
2016-03-11T00:15:41.562Z,41.17
2016-03-11T00:16:41.642Z,41.27
2016-03-11T00:17:41.692Z,40.99
2016-03-11T00:18:41.741Z,41.08
2016-03-11T00:19:41.775Z,40.99
2016-03-11T00:20:41.825Z,41.27
2016-03-11T00:21:41.891Z,41.37
2016-03-11T00:22:41.924Z,41.17
2016-03-11T00:23:41.974Z,41.27
2016-03-11T00:24:42.039Z,41.37
2016-03-11T00:25:42.120Z,41.17
2016-03-11T00:26:42.123Z,41.27
2016-03-11T00:27:42.204Z,41.27
2016-03-11T00:28:42.237Z,41.27
2016-03-11T00:29:42.302Z,41.17
2016-03-11T00:30:42.321Z,41.17
2016-03-11T00:31:42.401Z,41.27
2016-03-11T00:32:42.451Z,41.27
2016-03-11T00:33:42.485Z,41.17
2016-03-11T00:34:42.534Z,41.27
2016-03-11T00:35:42.601Z,41.37
2016-03-11T00:36:42.635Z,41.27
2016-03-11T00:37:42.699Z,41.63
2016-03-11T00:38:42.765Z,41.35
2016-03-11T00:39:42.798Z,41.54
2016-03-11T00:40:42.848Z,41.44
2016-03-11T00:41:42.914Z,41.54
2016-03-11T00:42:42.947Z,41.63
2016-03-11T00:43:43.012Z,41.35
2016-03-11T00:44:43.062Z,41.54
2016-03-11T00:45:43.111Z,41.83
2016-03-11T00:46:43.177Z,41.54
2016-03-11T00:47:43.211Z,41.83
2016-03-11T00:48:43.244Z,41.63
2016-03-11T00:49:43.325Z,42.4
2016-03-11T00:50:43.375Z,41.83
2016-03-11T00:51:43.409Z,42.11
2016-03-11T00:52:43.459Z,42.11
2016-03-11T00:53:43.368Z,42.21
2016-03-11T00:54:43.558Z,42.21
2016-03-11T00:55:43.639Z,42.21
2016-03-11T00:56:43.658Z,42.4
2016-03-11T00:57:43.738Z,42.11
2016-03-11T00:58:43.772Z,42.21
2016-03-11T00:59:43.822Z,42.3
2016-03-11T01:00:43.871Z,42.5
2016-03-11T01:01:43.936Z,41.83
2016-03-11T01:02:43.971Z,41.83
2016-03-11T01:03:44.020Z,41.93
2016-03-11T01:04:44.085Z,41.73
2016-03-11T01:05:44.119Z,42.3
2016-03-11T01:06:44.215Z,41.83
2016-03-11T01:07:44.249Z,41.93
2016-03-11T01:08:44.283Z,42.11
2016-03-11T01:09:44.317Z,42.4
2016-03-11T01:10:44.398Z,42.69
2016-03-11T01:11:44.448Z,42.3
2016-03-11T01:12:44.481Z,42.5
2016-03-11T01:13:44.562Z,42.6
2016-03-11T01:14:44.596Z,42.69
2016-03-11T01:15:44.631Z,42.3
2016-03-11T01:16:44.679Z,42.3
2016-03-11T01:17:44.745Z,42.21
2016-03-11T01:18:44.779Z,42.33
2016-03-11T01:19:44.829Z,42.23
2016-03-11T01:20:44.895Z,42.23
2016-03-11T01:21:44.943Z,42.04
2016-03-11T01:22:44.992Z,41.56
2016-03-11T01:23:45.042Z,41.94
2016-03-11T01:24:45.092Z,42.43
2016-03-11T01:25:45.158Z,42.43
2016-03-11T01:26:45.192Z,42.33
2016-03-11T01:27:45.257Z,41.94
2016-03-11T01:28:45.306Z,41.75
2016-03-11T01:29:45.340Z,41.56
2016-03-11T01:30:45.390Z,41.56
2016-03-11T01:31:45.470Z,41.66
2016-03-11T01:32:45.520Z,41.66
2016-03-11T01:33:45.570Z,41.37
2016-03-11T01:34:45.603Z,41.56
2016-03-11T01:35:45.653Z,41.56
2016-03-11T01:36:45.734Z,41.66
2016-03-11T01:37:45.752Z,41.49
2016-03-11T01:38:45.803Z,41.75
2016-03-11T01:39:45.867Z,41.77
2016-03-11T01:40:45.916Z,41.58
2016-03-11T01:41:45.951Z,41.67
2016-03-11T01:42:46.031Z,41.58
2016-03-11T01:43:46.082Z,41.77
2016-03-11T01:44:46.116Z,42.06
2016-03-11T01:45:46.196Z,42.44
2016-03-11T01:46:46.215Z,42.25
2016-03-11T01:47:46.279Z,42.16
2016-03-11T01:48:46.329Z,42.25
2016-03-11T01:49:46.362Z,42.25
2016-03-11T01:50:46.460Z,41.77
2016-03-11T01:51:46.493Z,41.96
2016-03-11T01:52:46.527Z,42.35
2016-03-11T01:53:46.592Z,42.25
2016-03-11T01:54:46.642Z,42.44
2016-03-11T01:55:46.519Z,42.35
2016-03-11T01:56:46.742Z,42.25
2016-03-11T01:57:46.790Z,42.16
2016-03-11T01:58:46.836Z,42.25
2016-03-11T01:59:46.875Z,42.35
2016-03-11T02:00:46.929Z,42.35
2016-03-11T02:01:46.969Z,42.16
2016-03-11T02:02:46.992Z,42.06
2016-03-11T02:03:47.048Z,42.25
2016-03-11T02:04:47.094Z,42.44
2016-03-11T02:05:47.124Z,42.54
2016-03-11T02:06:47.186Z,42.54
2016-03-11T02:07:47.232Z,42.44
2016-03-11T02:08:47.278Z,42.25
2016-03-11T02:09:47.341Z,42.64
2016-03-11T02:10:47.390Z,42.54
2016-03-11T02:11:47.422Z,42.73
2016-03-11T02:12:47.486Z,42.35
2016-03-11T02:13:47.518Z,42.54
2016-03-11T02:14:47.599Z,42.25
2016-03-11T02:15:47.632Z,42.73
2016-03-11T02:16:47.682Z,42.83
2016-03-11T02:17:47.746Z,42.73
2016-03-11T02:18:47.796Z,42.83
2016-03-11T02:19:47.830Z,42.73
2016-03-11T02:20:47.880Z,42.73
2016-03-11T02:21:47.944Z,42.93
2016-03-11T02:22:47.979Z,42.73
2016-03-11T02:23:48.028Z,42.73
2016-03-11T02:24:48.094Z,42.83
2016-03-11T02:25:48.158Z,42.93
2016-03-11T02:26:48.208Z,43.21
2016-03-11T02:27:48.242Z,43.12
2016-03-11T02:28:48.291Z,43.31
2016-03-11T02:29:48.357Z,43.12
2016-03-11T02:30:48.390Z,43.31
2016-03-11T02:31:48.440Z,43.4
2016-03-11T02:32:48.506Z,43.21
2016-03-11T02:33:48.571Z,43.12
2016-03-11T02:34:48.589Z,43.31
2016-03-11T02:35:48.670Z,43.38
2016-03-11T02:36:48.719Z,43.5
2016-03-11T02:37:48.770Z,43.31
2016-03-11T02:38:48.803Z,43.12
2016-03-11T02:39:48.853Z,43.4
2016-03-11T02:40:48.918Z,43.4
2016-03-11T02:41:48.967Z,43.21
2016-03-11T02:42:49.017Z,43.02
2016-03-11T02:43:49.082Z,43.5
2016-03-11T02:44:49.132Z,43.31
2016-03-11T02:45:49.166Z,43.4
2016-03-11T02:46:49.247Z,43.31
2016-03-11T02:47:49.280Z,43.4
2016-03-11T02:48:49.314Z,43.31
2016-03-11T02:49:49.395Z,43.4
2016-03-11T02:50:49.444Z,43.4
2016-03-11T02:51:49.478Z,43.02
2016-03-11T02:52:49.527Z,43.31
2016-03-11T02:53:49.608Z,43.21
2016-03-11T02:54:49.627Z,43.5
2016-03-11T02:55:49.693Z,43.5
2016-03-11T02:56:49.757Z,43.12
2016-03-11T02:57:49.791Z,43.7
2016-03-11T02:58:49.841Z,43.5
2016-03-11T02:59:49.906Z,43.21
2016-03-11T03:00:49.941Z,43.5
2016-03-11T03:01:49.990Z,43.31
2016-03-11T03:02:50.055Z,43.79
2016-03-11T03:03:50.104Z,43.48
2016-03-11T03:04:50.153Z,43.79
2016-03-11T03:05:50.187Z,43.88
2016-03-11T03:06:50.253Z,43.98
2016-03-11T03:07:50.318Z,43.7
2016-03-11T03:08:50.353Z,43.7
2016-03-11T03:09:50.401Z,43.79
2016-03-11T03:10:50.467Z,43.7
2016-03-11T03:11:50.517Z,43.7
2016-03-11T03:12:50.550Z,43.87
2016-03-11T03:13:50.616Z,43.7
2016-03-11T03:14:50.665Z,43.77
2016-03-11T03:15:50.714Z,44.08
2016-03-11T03:16:50.764Z,43.87
2016-03-11T03:17:50.813Z,43.57
2016-03-11T03:18:50.864Z,43.79
2016-03-11T03:19:50.914Z,44.08
2016-03-11T03:20:50.978Z,43.98
2016-03-11T03:21:51.013Z,43.98
2016-03-11T03:22:51.077Z,43.88
2016-03-11T03:23:51.127Z,43.98
2016-03-11T03:24:51.177Z,44.08
2016-03-11T03:25:51.227Z,43.96
2016-03-11T03:26:51.307Z,43.88
2016-03-11T03:27:51.341Z,43.88
2016-03-11T03:28:51.375Z,43.79
2016-03-11T03:29:51.424Z,43.77
2016-03-11T03:30:51.473Z,43.96
2016-03-11T03:31:51.555Z,43.79
2016-03-11T03:32:51.588Z,43.6
2016-03-11T03:33:51.654Z,43.57
2016-03-11T03:34:51.687Z,43.67
2016-03-11T03:35:51.754Z,43.77
2016-03-11T03:36:51.787Z,44.08
2016-03-11T03:37:51.852Z,44.15
2016-03-11T03:38:51.902Z,43.98
2016-03-11T03:39:51.951Z,44.06
2016-03-11T03:40:52.001Z,44.06
2016-03-11T03:41:52.051Z,43.96
2016-03-11T03:42:52.100Z,44.15
2016-03-11T03:43:52.165Z,43.98
2016-03-11T03:44:52.200Z,44.15
2016-03-11T03:45:52.264Z,44.24
2016-03-11T03:46:52.314Z,44.34
2016-03-11T03:47:52.347Z,44.27
2016-03-11T03:48:52.397Z,44.15
2016-03-11T03:49:52.463Z,44.34
2016-03-11T03:50:52.512Z,44.17
2016-03-11T03:51:52.561Z,44.15
2016-03-11T03:52:52.627Z,44.15
2016-03-11T03:53:52.660Z,44.46
2016-03-11T03:54:52.726Z,44.24
2016-03-11T03:55:52.760Z,44.06
2016-03-11T03:56:52.825Z,44.54
2016-03-11T03:57:52.874Z,44.06
2016-03-11T03:58:52.924Z,44.24
2016-03-11T03:59:52.974Z,44.24
2016-03-11T04:00:53.039Z,44.24
2016-03-11T04:01:53.074Z,44.73
2016-03-11T04:02:53.123Z,44.63
2016-03-11T04:03:53.187Z,44.63
2016-03-11T04:04:53.238Z,44.63
2016-03-11T04:05:53.287Z,44.63
2016-03-11T04:06:53.337Z,44.63
2016-03-11T04:07:53.386Z,44.24
2016-03-11T04:08:53.435Z,44.15
2016-03-11T04:09:53.485Z,44.44
2016-03-11T04:10:53.534Z,44.54
2016-03-11T04:11:53.600Z,44.24
2016-03-11T04:12:53.650Z,44.54
2016-03-11T04:13:53.683Z,44.24
2016-03-11T04:14:53.764Z,44.44
2016-03-11T04:15:53.798Z,44.15
2016-03-11T04:16:53.847Z,44.44
2016-03-11T04:17:53.914Z,44.54
2016-03-11T04:18:53.962Z,44.44
2016-03-11T04:19:54.012Z,44.44
2016-03-11T04:20:54.061Z,44.44
2016-03-11T04:21:54.111Z,44.15
2016-03-11T04:22:54.161Z,44.24
2016-03-11T04:23:54.226Z,44.24
2016-03-11T04:24:54.291Z,44.63
2016-03-11T04:25:54.310Z,44.34
2016-03-11T04:26:54.390Z,44.34
2016-03-11T04:27:54.408Z,44.34
2016-03-11T04:28:54.474Z,44.92
2016-03-11T04:29:54.524Z,44.63
2016-03-11T04:30:54.573Z,44.82
2016-03-11T04:31:54.607Z,44.54
2016-03-11T04:32:54.672Z,44.44
2016-03-11T04:33:54.722Z,44.54
2016-03-11T04:34:54.771Z,44.54
2016-03-11T04:35:54.837Z,44.63
2016-03-11T04:36:54.885Z,44.54
2016-03-11T04:37:54.920Z,44.63
2016-03-11T04:38:55.001Z,44.63
2016-03-11T04:39:55.034Z,44.73
2016-03-11T04:40:55.115Z,44.63
2016-03-11T04:41:55.133Z,44.82
2016-03-11T04:42:55.198Z,44.82
2016-03-11T04:43:55.233Z,44.63
2016-03-11T04:44:55.282Z,45.11
2016-03-11T04:45:55.332Z,45.4
2016-03-11T04:46:55.382Z,45.01
2016-03-11T04:47:55.447Z,44.92
2016-03-11T04:48:55.496Z,45.01
2016-03-11T04:49:55.546Z,44.92
2016-03-11T04:50:55.595Z,44.92
2016-03-11T04:51:55.644Z,45.11
2016-03-11T04:52:55.695Z,45.4
2016-03-11T04:53:55.760Z,44.92
2016-03-11T04:54:55.809Z,45.4
2016-03-11T04:55:55.875Z,45.21
2016-03-11T04:56:55.908Z,44.92
2016-03-11T04:57:55.958Z,45.21
2016-03-11T04:58:56.008Z,45.3
2016-03-11T04:59:56.057Z,45.11
2016-03-11T05:00:56.106Z,45.3
2016-03-11T05:01:56.172Z,45.68
2016-03-11T05:02:56.205Z,45.5
2016-03-11T05:03:56.255Z,45.3
2016-03-11T05:04:56.320Z,45.4
2016-03-11T05:05:56.230Z,45.4
2016-03-11T05:06:56.425Z,45.4
2016-03-11T05:07:56.491Z,45.21
2016-03-11T05:08:56.525Z,45.3
2016-03-11T05:09:56.574Z,45.3
2016-03-11T05:10:56.686Z,45.4
2016-03-11T05:11:56.704Z,45.4
2016-03-11T05:12:56.738Z,45.21
2016-03-11T05:13:56.772Z,45.3
2016-03-11T05:14:56.822Z,45.11
2016-03-11T05:15:56.903Z,45.4
2016-03-11T05:16:56.937Z,45.4
2016-03-11T05:17:56.987Z,45.5
2016-03-11T05:18:57.051Z,45.68
2016-03-11T05:19:57.101Z,45.59
2016-03-11T05:20:57.134Z,46.26
2016-03-11T05:21:57.200Z,45.5
2016-03-11T05:22:57.250Z,46.17
2016-03-11T05:23:57.300Z,46.17
2016-03-11T05:24:57.380Z,45.78
2016-03-11T05:25:57.398Z,45.98
2016-03-11T05:26:57.464Z,46.17
2016-03-11T05:27:57.514Z,46.07
2016-03-11T05:28:57.563Z,46.07
2016-03-11T05:29:57.597Z,46.26
2016-03-11T05:30:57.677Z,46.17
2016-03-11T05:31:57.697Z,46.84
2016-03-11T05:32:57.761Z,45.98
2016-03-11T05:33:57.811Z,45.88
2016-03-11T05:34:57.875Z,46.07
2016-03-11T05:35:57.910Z,46.65
2016-03-11T05:36:57.975Z,46.17
2016-03-11T05:37:58.008Z,46.07
2016-03-11T05:38:58.074Z,46.65
2016-03-11T05:39:58.107Z,46.26
2016-03-11T05:40:58.174Z,45.98
2016-03-11T05:41:58.223Z,45.88
2016-03-11T05:42:58.272Z,46.07
2016-03-11T05:43:58.307Z,45.98
2016-03-11T05:44:58.371Z,45.88
2016-03-11T05:45:58.437Z,46.94
2016-03-11T05:46:58.470Z,46.36
2016-03-11T05:47:58.521Z,46.07
2016-03-11T05:48:58.585Z,46.55
2016-03-11T05:49:58.635Z,46.26
2016-03-11T05:50:58.684Z,45.98
2016-03-11T05:51:58.718Z,46.17
2016-03-11T05:52:58.799Z,46.55
2016-03-11T05:53:58.833Z,46.55
2016-03-11T05:54:58.883Z,46.45
2016-03-11T05:55:58.947Z,46.94
2016-03-11T05:56:58.982Z,46.36
2016-03-11T05:57:59.047Z,46.26
2016-03-11T05:58:59.097Z,46.65
2016-03-11T05:59:59.146Z,46.65
2016-03-11T06:00:59.195Z,46.17
2016-03-11T06:01:59.245Z,47.03
2016-03-11T06:02:59.295Z,46.36
2016-03-11T06:03:59.360Z,46.55
2016-03-11T06:04:59.394Z,46.94
2016-03-11T06:05:59.444Z,46.17
2016-03-11T06:06:59.509Z,46.74
2016-03-11T06:07:59.558Z,46.94
2016-03-11T06:08:59.608Z,46.94
2016-03-11T06:09:59.657Z,46.55
2016-03-11T06:10:59.707Z,46.26
2016-03-11T06:11:59.757Z,46.43
2016-03-11T06:12:59.821Z,46.36
2016-03-11T06:13:59.856Z,47.1
2016-03-11T06:14:59.921Z,46.65
2016-03-11T06:15:59.955Z,46.36
2016-03-11T06:17:00.035Z,47.03
2016-03-11T06:18:00.070Z,47.03
2016-03-11T06:19:00.118Z,47.13
2016-03-11T06:20:00.168Z,47.32
2016-03-11T06:21:00.265Z,47.13
2016-03-11T06:22:00.299Z,46.55
2016-03-11T06:23:00.334Z,47.32
2016-03-11T06:24:00.398Z,47.13
2016-03-11T06:25:00.432Z,47.13
2016-03-11T06:26:00.497Z,47.22
2016-03-11T06:27:00.531Z,47.03
2016-03-11T06:28:00.581Z,46.45
2016-03-11T06:29:00.630Z,46.43
2016-03-11T06:30:00.680Z,47.2
2016-03-11T06:31:00.730Z,47.03
2016-03-11T06:32:00.795Z,46.94
2016-03-11T06:33:00.906Z,47.13
2016-03-11T06:34:00.894Z,47.13
2016-03-11T06:35:00.943Z,47.01
2016-03-11T06:36:00.993Z,47.8
2016-03-11T06:37:01.042Z,47.03
2016-03-11T06:38:01.092Z,47.32
2016-03-11T06:39:01.141Z,47.03
2016-03-11T06:40:01.191Z,47.13
2016-03-11T06:41:01.257Z,46.65
2016-03-11T06:42:01.321Z,47.13
2016-03-11T06:43:01.371Z,47.03
2016-03-11T06:44:01.389Z,46.94
2016-03-11T06:45:01.470Z,47.32
2016-03-11T06:46:01.520Z,47.32
2016-03-11T06:47:01.554Z,47.13
2016-03-11T06:48:01.618Z,47.03
2016-03-11T06:49:01.668Z,47.13
2016-03-11T06:50:01.717Z,47.22
2016-03-11T06:51:01.751Z,47.13
2016-03-11T06:52:01.832Z,47.22
2016-03-11T06:53:01.867Z,47.22
2016-03-11T06:54:01.917Z,46.65
2016-03-11T06:55:01.966Z,47.03
2016-03-11T06:56:02.015Z,46.65
2016-03-11T06:57:02.065Z,46.94
2016-03-11T06:58:02.115Z,47.13
2016-03-11T06:59:02.165Z,47.13
2016-03-11T07:00:02.229Z,47.32
2016-03-11T07:01:02.295Z,47.22
2016-03-11T07:02:02.313Z,47.22
2016-03-11T07:03:02.425Z,47.22
2016-03-11T07:04:02.458Z,47.32
2016-03-11T07:05:02.477Z,47.32
2016-03-11T07:06:02.527Z,47.13
2016-03-11T07:07:02.592Z,47.22
2016-03-11T07:08:02.625Z,47.32
2016-03-11T07:09:02.691Z,47.3
2016-03-11T07:10:02.788Z,47.41
2016-03-11T07:11:02.805Z,47.13
2016-03-11T07:12:02.855Z,47.01
2016-03-11T07:13:02.905Z,47.03
2016-03-11T07:14:02.955Z,46.05
2016-03-11T07:15:03.004Z,44.61
2016-03-11T07:16:03.054Z,45.47
2016-03-11T07:17:03.103Z,45.76
2016-03-11T07:18:03.200Z,46.81
2016-03-11T07:19:03.187Z,46.14
2016-03-11T07:20:03.268Z,46.43
2016-03-11T07:21:03.301Z,46.62
2016-03-11T07:22:03.351Z,46.72
2016-03-11T07:23:03.401Z,47.1
2016-03-11T07:24:03.451Z,47.3
2016-03-11T07:25:03.500Z,47.3
2016-03-11T07:26:03.581Z,47.2
2016-03-11T07:27:03.598Z,47.3
2016-03-11T07:28:03.648Z,47.01
2016-03-11T07:29:03.714Z,46.91
2016-03-11T07:30:03.748Z,47.01
2016-03-11T07:31:03.844Z,47.2
2016-03-11T07:32:03.878Z,47.1
2016-03-11T07:33:03.912Z,47.01
2016-03-11T07:34:03.961Z,46.84
2016-03-11T07:35:04.011Z,47.39
2016-03-11T07:36:04.060Z,47.22
2016-03-11T07:37:04.125Z,47.41
2016-03-11T07:38:04.160Z,47.2
2016-03-11T07:39:04.225Z,47.22
2016-03-11T07:40:04.274Z,46.84
2016-03-11T07:41:04.324Z,47.41
2016-03-11T07:42:04.373Z,47.3
2016-03-11T07:43:04.439Z,47.51
2016-03-11T07:44:04.504Z,47.22
2016-03-11T07:45:04.538Z,47.41
2016-03-11T07:46:04.572Z,47.13
2016-03-11T07:47:04.621Z,47.32
2016-03-11T07:48:04.702Z,47.22
2016-03-11T07:49:04.751Z,47.51
2016-03-11T07:50:04.786Z,47.41
2016-03-11T07:51:04.851Z,45.5
2016-03-11T07:52:04.885Z,44.54
2016-03-11T07:53:04.918Z,46.07
2016-03-11T07:54:04.999Z,46.05
2016-03-11T07:55:05.033Z,45.86
2016-03-11T07:56:05.083Z,46.34
2016-03-11T07:57:05.132Z,46.43
2016-03-11T07:58:05.198Z,46.43
2016-03-11T07:59:05.231Z,46.43
2016-03-11T08:00:05.297Z,47.1
2016-03-11T08:01:05.347Z,47.22
2016-03-11T08:02:05.395Z,47.03
2016-03-11T08:03:05.446Z,47.01
2016-03-11T08:04:05.511Z,47.8
2016-03-11T08:05:05.576Z,47.01
2016-03-11T08:06:05.594Z,46.94
2016-03-11T08:07:05.659Z,46.65
2016-03-11T08:08:05.709Z,47.03
2016-03-11T08:09:05.744Z,47.01
2016-03-11T08:10:05.824Z,46.43
2016-03-11T08:11:05.858Z,44.92
2016-03-11T08:12:05.908Z,45.11
2016-03-11T08:13:05.958Z,45.11
2016-03-11T08:14:05.991Z,45.3
2016-03-11T08:15:06.088Z,45.28
2016-03-11T08:16:06.122Z,46.24
2016-03-11T08:17:06.155Z,45.18
2016-03-11T08:18:06.236Z,45.37
2016-03-11T08:19:06.286Z,45.95
2016-03-11T08:20:06.319Z,45.57
2016-03-11T08:21:06.369Z,45.47
2016-03-11T08:22:06.450Z,45.76
2016-03-11T08:23:06.484Z,46.05
2016-03-11T08:24:06.534Z,46.14
2016-03-11T08:25:06.567Z,46.14
2016-03-11T08:26:06.632Z,46.05
2016-03-11T08:27:06.698Z,46.34
2016-03-11T08:28:06.715Z,46.34
2016-03-11T08:29:06.781Z,45.95
2016-03-11T08:30:06.831Z,46.34
2016-03-11T08:31:06.896Z,46.24
2016-03-11T08:32:06.945Z,45.76
2016-03-11T08:33:06.979Z,45.95
2016-03-11T08:34:07.029Z,46.43
2016-03-11T08:35:07.109Z,45.76
2016-03-11T08:36:07.144Z,46.34
2016-03-11T08:37:07.193Z,45.76
2016-03-11T08:38:07.243Z,46.34
2016-03-11T08:39:07.277Z,45.47
2016-03-11T08:40:07.358Z,45.67
2016-03-11T08:41:07.392Z,45.76
2016-03-11T08:42:07.457Z,45.47
2016-03-11T08:43:07.491Z,46.34
2016-03-11T08:44:07.540Z,45.37
2016-03-11T08:45:07.590Z,46.24
2016-03-11T08:46:07.655Z,45.37
2016-03-11T08:47:07.720Z,45.47
2016-03-11T08:48:07.754Z,45.57
2016-03-11T08:49:07.804Z,45.47
2016-03-11T08:50:07.854Z,46.05
2016-03-11T08:51:07.888Z,45.09
2016-03-11T08:52:07.968Z,45.57
2016-03-11T08:53:08.002Z,45.09
2016-03-11T08:54:08.051Z,45.09
2016-03-11T08:55:08.101Z,45.37
2016-03-11T08:56:08.166Z,46.34
2016-03-11T08:57:08.200Z,46.24
2016-03-11T08:58:08.250Z,46.43
2016-03-11T08:59:08.315Z,45.86
2016-03-11T09:00:08.365Z,45.37
2016-03-11T09:01:08.398Z,45.47
2016-03-11T09:02:08.463Z,45.47
2016-03-11T09:03:08.529Z,45.47
2016-03-11T09:04:08.578Z,45.57
2016-03-11T09:05:08.596Z,45.86
2016-03-11T09:06:08.521Z,45.67
2016-03-11T09:07:08.727Z,45.67
2016-03-11T09:08:08.777Z,45.37
2016-03-11T09:09:08.810Z,46.14
2016-03-11T09:10:08.891Z,45.57
2016-03-11T09:11:08.910Z,45.47
2016-03-11T09:12:08.975Z,45.18
2016-03-11T09:13:09.040Z,45.47
2016-03-11T09:14:09.058Z,45.47
2016-03-11T09:15:09.139Z,45.37
2016-03-11T09:16:09.189Z,45.86
2016-03-11T09:17:09.254Z,45.28
2016-03-11T09:18:09.288Z,45.67
2016-03-11T09:19:09.321Z,45.09
2016-03-11T09:20:09.371Z,45.09
2016-03-11T09:21:09.452Z,45.18
2016-03-11T09:22:09.470Z,45.76
2016-03-11T09:23:09.535Z,45.67
2016-03-11T09:24:09.601Z,45.57
2016-03-11T09:25:09.635Z,42.6
2016-03-11T09:26:09.700Z,41.83
2016-03-11T09:27:09.749Z,40.87
2016-03-11T09:28:09.799Z,40.66
2016-03-11T09:29:09.849Z,40.56
2016-03-11T09:30:09.929Z,40.66
2016-03-11T09:31:09.932Z,40.56
2016-03-11T09:32:10.013Z,40.44
2016-03-11T09:33:10.047Z,40.35
2016-03-11T09:34:10.111Z,40.92
2016-03-11T09:35:10.162Z,40.61
2016-03-11T09:36:10.195Z,40.9
2016-03-11T09:37:10.245Z,40.33
2016-03-11T09:38:10.295Z,41
2016-03-11T09:39:10.345Z,41.27
2016-03-11T09:40:10.394Z,41.36
2016-03-11T09:41:10.444Z,41.65
2016-03-11T09:42:10.508Z,41.46
2016-03-11T09:43:10.542Z,41.36
2016-03-11T09:44:10.592Z,41.65
2016-03-11T09:45:10.672Z,41.74
2016-03-11T09:46:10.691Z,41.74
2016-03-11T09:47:10.772Z,41.36
2016-03-11T09:48:10.821Z,41.17
2016-03-11T09:49:10.855Z,41.36
2016-03-11T09:50:10.920Z,41.27
2016-03-11T09:51:10.955Z,41.15
2016-03-11T09:52:11.021Z,40.86
2016-03-11T09:53:11.054Z,41.24
2016-03-11T09:54:11.119Z,42.2
2016-03-11T09:55:11.154Z,43.54
2016-03-11T09:56:11.202Z,44.02
2016-03-11T09:57:11.267Z,44.4
2016-03-11T09:58:11.302Z,44.13
2016-03-11T09:59:11.382Z,44.04
2016-03-11T10:00:11.401Z,44.13
2016-03-11T10:01:11.481Z,44.04
2016-03-11T10:02:11.500Z,44.16
2016-03-11T10:03:11.565Z,44.06
2016-03-11T10:04:11.598Z,43.87
2016-03-11T10:05:11.648Z,43.97
2016-03-11T10:06:11.698Z,43.87
2016-03-11T10:07:11.770Z,43.68
2016-03-11T10:08:11.803Z,44.26
2016-03-11T10:09:11.837Z,44.26
2016-03-11T10:10:12.371Z,44.16
2016-03-11T10:11:12.733Z,44.16
2016-03-11T10:12:12.986Z,44.54
2016-03-11T10:13:13.316Z,44.64
2016-03-11T10:14:12.226Z,44.85
2016-03-11T10:15:12.447Z,44.66
2016-03-11T10:16:12.199Z,44.76
2016-03-11T10:17:12.547Z,44.47
2016-03-11T10:18:12.315Z,45.52
2016-03-11T10:19:13.395Z,45.72
2016-03-11T10:20:12.710Z,44.85
2016-03-11T10:21:12.964Z,44.85
2016-03-11T10:22:13.247Z,45.04
2016-03-11T10:23:13.530Z,45.04
2016-03-11T10:24:12.596Z,45.81
2016-03-11T10:25:12.646Z,45.33
2016-03-11T10:26:12.696Z,45.52
2016-03-11T10:27:12.744Z,45.26
2016-03-11T10:28:13.044Z,45.74
2016-03-11T10:29:12.859Z,45.16
2016-03-11T10:30:12.909Z,45.04
2016-03-11T10:31:12.959Z,45.07
2016-03-11T10:32:12.992Z,44.87
2016-03-11T10:33:13.058Z,44.97
2016-03-11T10:34:13.123Z,44.78
2016-03-11T10:35:13.157Z,44.87
2016-03-11T10:36:13.206Z,44.68
2016-03-11T10:37:13.256Z,44.68
2016-03-11T10:38:13.306Z,44.4
2016-03-11T10:39:13.355Z,44.49
2016-03-11T10:40:13.405Z,44.4
2016-03-11T10:41:13.454Z,44.4
2016-03-11T10:42:13.519Z,44.2
2016-03-11T10:43:13.569Z,44.78
2016-03-11T10:44:13.603Z,44.3
2016-03-11T10:45:13.653Z,44.11
2016-03-11T10:46:13.702Z,43.53
2016-03-11T10:47:13.768Z,43.13
2016-03-11T10:48:13.801Z,43.53
2016-03-11T10:49:13.866Z,43.63
2016-03-11T10:50:13.916Z,43.73
2016-03-11T10:51:13.966Z,43.63
2016-03-11T10:52:14.000Z,43.63
2016-03-11T10:53:14.064Z,43.32
2016-03-11T10:54:14.114Z,43.34
2016-03-11T10:55:14.149Z,43.44
2016-03-11T10:56:14.213Z,43.73
2016-03-11T10:57:14.279Z,43.82
2016-03-11T10:58:14.359Z,43.82
2016-03-11T10:59:14.363Z,44.01
2016-03-11T11:00:14.412Z,43.91
2016-03-11T11:01:14.461Z,43.7
2016-03-11T11:02:14.510Z,43.82
2016-03-11T11:03:14.560Z,43.82
2016-03-11T11:04:14.610Z,44.01
2016-03-11T11:05:14.668Z,43.73
2016-03-11T11:06:14.687Z,44.11
2016-03-11T11:07:14.722Z,44.2
2016-03-11T11:08:14.772Z,44.11
2016-03-11T11:09:14.822Z,44.11
2016-03-11T11:10:14.908Z,44.59
2016-03-11T11:11:14.890Z,44.2
2016-03-11T11:12:14.918Z,44.3
2016-03-11T11:13:14.979Z,44.3
2016-03-11T11:14:15.038Z,44.11
2016-03-11T11:15:15.068Z,44.11
2016-03-11T11:16:15.116Z,44.11
2016-03-11T11:17:15.179Z,44.11
2016-03-11T11:18:15.211Z,44.01
2016-03-11T11:19:15.274Z,43.91
2016-03-11T11:20:15.322Z,44.01
2016-03-11T11:21:15.356Z,44.01
2016-03-11T11:22:15.420Z,43.91
2016-03-11T11:23:15.469Z,44.01
2016-03-11T11:24:15.502Z,43.34
2016-03-11T11:25:15.567Z,43.24
2016-03-11T11:26:15.617Z,43.63
2016-03-11T11:27:15.649Z,43.73
2016-03-11T11:28:15.713Z,43.82
2016-03-11T11:29:15.763Z,43.82
2016-03-11T11:30:15.812Z,43.24
2016-03-11T11:31:15.863Z,43.63
2016-03-11T11:32:15.927Z,43.53
2016-03-11T11:33:15.961Z,43.34
2016-03-11T11:34:16.012Z,43.91
2016-03-11T11:35:16.076Z,43.63
2016-03-11T11:36:16.109Z,43.34
2016-03-11T11:37:16.176Z,43.63
2016-03-11T11:38:16.209Z,43.53
2016-03-11T11:39:16.259Z,43.73
2016-03-11T11:40:16.323Z,43.63
2016-03-11T11:41:16.389Z,43.53
2016-03-11T11:42:16.423Z,43.53
2016-03-11T11:43:16.472Z,43.63
2016-03-11T11:44:16.522Z,43.91
2016-03-11T11:45:16.572Z,43.63
2016-03-11T11:46:16.621Z,43.73
2016-03-11T11:47:16.686Z,43.34
2016-03-11T11:48:16.720Z,43.44
2016-03-11T11:49:16.769Z,43.53
2016-03-11T11:50:16.835Z,43.63
2016-03-11T11:51:16.885Z,43.63
2016-03-11T11:52:16.935Z,43.44
2016-03-11T11:53:16.983Z,43.44
2016-03-11T11:54:17.033Z,43.82
2016-03-11T11:55:16.974Z,43.44
2016-03-11T11:56:17.117Z,43.44
2016-03-11T11:57:17.182Z,43.53
2016-03-11T11:58:17.247Z,43.44
2016-03-11T11:59:17.282Z,43.53
2016-03-11T12:00:17.331Z,43.44
2016-03-11T12:01:17.396Z,43.15
2016-03-11T12:02:17.462Z,43.53
2016-03-11T12:03:17.511Z,43.44
2016-03-11T12:04:17.545Z,43.44
2016-03-11T12:05:17.595Z,43.34
2016-03-11T12:06:17.659Z,43.44
2016-03-11T12:07:17.709Z,43.24
2016-03-11T12:08:17.759Z,43.53
2016-03-11T12:09:17.792Z,43.34
2016-03-11T12:10:17.842Z,43.53
2016-03-11T12:11:17.907Z,43.44
2016-03-11T12:12:17.956Z,43.44
2016-03-11T12:13:18.007Z,42.96
2016-03-11T12:14:18.040Z,43.24
2016-03-11T12:15:18.090Z,43.44
2016-03-11T12:16:18.155Z,43.24
2016-03-11T12:17:18.205Z,43.44
2016-03-11T12:18:18.364Z,43.44
2016-03-11T12:19:18.288Z,43.34
2016-03-11T12:20:18.369Z,43.82
2016-03-11T12:21:18.434Z,43.53
2016-03-11T12:22:18.453Z,43.53
2016-03-11T12:23:18.533Z,43.73
2016-03-11T12:24:18.552Z,43.44
2016-03-11T12:25:18.617Z,43.53
2016-03-11T12:26:18.666Z,43.53
2016-03-11T12:27:18.700Z,43.63
2016-03-11T12:28:18.781Z,43.91
2016-03-11T12:29:18.830Z,43.34
2016-03-11T12:30:18.865Z,43.73
2016-03-11T12:31:19.071Z,43.53
2016-03-11T12:32:18.979Z,43.53
2016-03-11T12:33:19.013Z,43.53
2016-03-11T12:34:19.063Z,43.44
2016-03-11T12:35:19.129Z,43.63
2016-03-11T12:36:19.146Z,43.82
2016-03-11T12:37:19.212Z,43.63
2016-03-11T12:38:19.261Z,43.53
2016-03-11T12:39:19.311Z,43.73
2016-03-11T12:40:19.376Z,43.44
2016-03-11T12:41:19.409Z,43.82
2016-03-11T12:42:19.459Z,43.63
2016-03-11T12:43:19.524Z,43.44
2016-03-11T12:44:19.559Z,43.63
2016-03-11T12:45:19.623Z,43.24
2016-03-11T12:46:19.705Z,43.73
2016-03-11T12:47:19.708Z,43.53
2016-03-11T12:48:19.772Z,43.44
2016-03-11T12:49:19.822Z,43.44
2016-03-11T12:50:19.856Z,43.73
2016-03-11T12:51:19.922Z,43.63
2016-03-11T12:52:19.971Z,43.63
2016-03-11T12:53:20.036Z,43.63
2016-03-11T12:54:20.102Z,43.53
2016-03-11T12:55:20.135Z,43.82
2016-03-11T12:56:20.200Z,43.82